createdAt,value
2022-08-17T00:01:00.483Z,99025.81
2022-08-17T00:02:38.347Z,99025.84
2022-08-17T00:04:19.404Z,99022.47
2022-08-17T00:06:01.611Z,99026.63
2022-08-17T00:07:33.763Z,99025.94
2022-08-17T00:09:05.976Z,99023.88
2022-08-17T00:10:39.635Z,99020.41
2022-08-17T00:12:41.653Z,99017.63
2022-08-17T00:14:09.391Z,99020.41
2022-08-17T00:15:41.900Z,99023.81
2022-08-17T00:17:14.080Z,99028.00
2022-08-17T00:18:56.767Z,99022.47
2022-08-17T00:20:39.490Z,99023.16
2022-08-17T00:22:31.815Z,99026.63
2022-08-17T00:24:04.512Z,99020.41
2022-08-17T00:25:36.964Z,99019.03
2022-08-17T00:27:09.157Z,99014.16
2022-08-17T00:28:42.544Z,99023.16
2022-08-17T00:30:14.954Z,99021.03
2022-08-17T00:31:47.292Z,99021.66
2022-08-17T00:33:25.689Z,99024.47
2022-08-17T00:34:58.497Z,99021.66
2022-08-17T00:36:30.769Z,99021.63
2022-08-17T00:38:05.063Z,99019.47
2022-08-17T00:39:38.764Z,99028.44
2022-08-17T00:41:19.036Z,99027.63
2022-08-17T00:42:51.389Z,99025.56
2022-08-17T00:44:23.856Z,99020.72
2022-08-17T00:46:07.317Z,99022.72
2022-08-17T00:47:40.388Z,99028.94
2022-08-17T00:49:13.205Z,99033.69
2022-08-17T00:51:05.542Z,99021.81
2022-08-17T00:52:43.838Z,99027.22
2022-08-17T00:54:16.307Z,99031.34
2022-08-17T00:55:48.714Z,99029.91
2022-08-17T00:57:30.753Z,99025.66
2022-08-17T00:59:05.973Z,99026.16
2022-08-17T01:00:42.309Z,99024.03
2022-08-17T01:02:15.725Z,99022.53
2022-08-17T01:03:49.115Z,99030.75
2022-08-17T01:05:25.667Z,99029.25
2022-08-17T01:06:59.114Z,99027.13
2022-08-17T01:08:31.964Z,99014.50
2022-08-17T01:10:06.709Z,99027.72
2022-08-17T01:11:40.650Z,99024.94
2022-08-17T01:13:13.745Z,99024.25
2022-08-17T01:14:46.075Z,99026.34
2022-08-17T01:16:22.996Z,99018.06
2022-08-17T01:17:55.173Z,99024.97
2022-08-17T01:19:32.559Z,99027.75
2022-08-17T01:21:14.298Z,99027.66
2022-08-17T01:22:46.668Z,99038.09
2022-08-17T01:24:18.863Z,99022.84
2022-08-17T01:25:53.541Z,99022.13
2022-08-17T01:27:26.761Z,99026.88
2022-08-17T01:29:00.812Z,99026.69
2022-08-17T01:30:57.398Z,99031.59
2022-08-17T01:32:28.012Z,99031.50
2022-08-17T01:34:04.683Z,99027.25
2022-08-17T01:35:38.301Z,99022.25
2022-08-17T01:37:13.286Z,99018.78
2022-08-17T01:38:45.964Z,99031.84
2022-08-17T01:40:39.177Z,99032.50
2022-08-17T01:42:22.828Z,99033.13
2022-08-17T01:44:00.986Z,99028.13
2022-08-17T01:45:41.174Z,99034.31
2022-08-17T01:47:13.588Z,99032.81
2022-08-17T01:48:47.621Z,99032.72
2022-08-17T01:50:25.856Z,99038.81
2022-08-17T01:51:58.406Z,99029.75
2022-08-17T01:53:36.577Z,99031.00
2022-08-17T01:55:09.562Z,99027.38
2022-08-17T01:56:47.224Z,99029.94
2022-08-17T01:58:21.024Z,99028.38
2022-08-17T01:59:53.176Z,99035.94
2022-08-17T02:01:28.497Z,99034.31
2022-08-17T02:03:01.036Z,99030.69
2022-08-17T02:04:33.961Z,99038.13
2022-08-17T02:06:27.061Z,99044.84
2022-08-17T02:08:00.885Z,99042.53
2022-08-17T02:09:33.433Z,99038.31
2022-08-17T02:11:11.504Z,99043.72
2022-08-17T02:12:44.254Z,99043.66
2022-08-17T02:14:16.628Z,99039.34
2022-08-17T02:15:49.134Z,99042.00
2022-08-17T02:17:21.359Z,99036.41
2022-08-17T02:18:53.509Z,99039.19
2022-08-17T02:20:42.001Z,99039.88
2022-08-17T02:22:15.715Z,99041.41
2022-08-17T02:23:49.589Z,99039.28
2022-08-17T02:25:21.958Z,99042.22
2022-08-17T02:26:56.768Z,99042.22
2022-08-17T02:28:29.619Z,99037.41
2022-08-17T02:30:02.615Z,99029.72
2022-08-17T02:31:35.634Z,99038.69
2022-08-17T02:33:09.147Z,99026.25
2022-08-17T02:34:41.901Z,99031.19
2022-08-17T02:36:14.226Z,99033.28
2022-08-17T02:37:46.411Z,99036.88
2022-08-17T02:39:24.398Z,99027.25
2022-08-17T02:40:58.511Z,99032.88
2022-08-17T02:42:37.183Z,99028.81
2022-08-17T02:44:09.387Z,99029.63
2022-08-17T02:45:41.591Z,99032.44
2022-08-17T02:47:14.057Z,99029.78
2022-08-17T02:48:46.360Z,99035.34
2022-08-17T02:50:21.215Z,99029.09
2022-08-17T02:51:53.547Z,99025.63
2022-08-17T02:53:26.171Z,99029.69
2022-08-17T02:54:58.395Z,99035.94
2022-08-17T02:56:30.584Z,99028.91
2022-08-17T02:58:03.812Z,99030.28
2022-08-17T02:59:36.469Z,99024.66
2022-08-17T03:01:10.394Z,99028.19
2022-08-17T03:02:44.207Z,99029.50
2022-08-17T03:04:16.482Z,99030.09
2022-08-17T03:05:51.399Z,99031.47
2022-08-17T03:07:23.591Z,99034.16
2022-08-17T03:08:55.755Z,99029.88
2022-08-17T03:10:28.197Z,99039.56
2022-08-17T03:12:08.528Z,99035.38
2022-08-17T03:13:40.712Z,99035.28
2022-08-17T03:15:20.494Z,99040.91
2022-08-17T03:16:52.711Z,99043.03
2022-08-17T03:18:26.385Z,99037.47
2022-08-17T03:19:59.066Z,99042.97
2022-08-17T03:21:31.252Z,99043.66
2022-08-17T03:23:04.278Z,99037.41
2022-08-17T03:24:39.249Z,99032.47
2022-08-17T03:26:15.566Z,99033.84
2022-08-17T03:27:48.468Z,99039.41
2022-08-17T03:29:23.766Z,99042.09
2022-08-17T03:30:56.266Z,99037.94
2022-08-17T03:32:28.501Z,99036.47
2022-08-17T03:34:01.212Z,99037.88
2022-08-17T03:35:34.506Z,99039.88
2022-08-17T03:37:07.244Z,99035.72
2022-08-17T03:38:39.636Z,99049.50
2022-08-17T03:40:12.224Z,99046.09
2022-08-17T03:41:44.350Z,99050.88
2022-08-17T03:43:17.844Z,99041.13
2022-08-17T03:44:51.148Z,99053.56
2022-08-17T03:46:42.191Z,99048.63
2022-08-17T03:48:33.132Z,99050.03
2022-08-17T03:50:19.483Z,99054.09
2022-08-17T03:52:10.636Z,99061.59
2022-08-17T03:54:10.407Z,99060.19
2022-08-17T03:56:01.507Z,99044.81
2022-08-17T03:57:33.718Z,99053.31
2022-08-17T03:59:05.931Z,99058.19
2022-08-17T04:00:39.750Z,99049.28
2022-08-17T04:02:25.654Z,99051.34
2022-08-17T04:03:57.811Z,99056.28
2022-08-17T04:05:30.354Z,99046.63
2022-08-17T04:07:07.373Z,99052.25
2022-08-17T04:08:39.862Z,99059.94
2022-08-17T04:10:12.192Z,99055.19
2022-08-17T04:11:44.991Z,99054.59
2022-08-17T04:13:24.244Z,99047.03
2022-08-17T04:14:58.455Z,99056.75
2022-08-17T04:16:31.144Z,99058.81
2022-08-17T04:18:03.436Z,99054.75
2022-08-17T04:19:35.882Z,99056.16
2022-08-17T04:21:11.191Z,99059.69
2022-08-17T04:23:17.646Z,99052.16
2022-08-17T04:24:50.210Z,99057.75
2022-08-17T04:26:52.761Z,99062.66
2022-08-17T04:28:17.257Z,99058.53
2022-08-17T04:29:55.521Z,99054.44
2022-08-17T04:31:28.302Z,99053.19
2022-08-17T04:33:08.709Z,99054.72
2022-08-17T04:34:41.349Z,99055.53
2022-08-17T04:36:15.685Z,99058.34
2022-08-17T04:37:48.083Z,99060.44
2022-08-17T04:39:20.279Z,99066.78
2022-08-17T04:41:11.711Z,99067.59
2022-08-17T04:42:43.863Z,99068.34
2022-08-17T04:44:36.972Z,99071.22
2022-08-17T04:46:15.842Z,99067.09
2022-08-17T04:47:48.183Z,99054.66
2022-08-17T04:49:20.926Z,99061.69
2022-08-17T04:50:53.226Z,99067.41
2022-08-17T04:52:43.295Z,99071.59
2022-08-17T04:54:18.628Z,99070.38
2022-08-17T04:55:55.009Z,99069.72
2022-08-17T04:57:27.509Z,99064.41
2022-08-17T04:59:08.855Z,99065.97
2022-08-17T05:00:41.110Z,99075.84
2022-08-17T05:02:14.063Z,99078.06
2022-08-17T05:03:46.619Z,99073.38
2022-08-17T05:05:30.327Z,99088.25
2022-08-17T05:07:04.611Z,99082.47
2022-08-17T05:08:36.977Z,99087.94
2022-08-17T05:10:09.654Z,99089.00
2022-08-17T05:11:44.920Z,99093.94
2022-08-17T05:13:22.397Z,99082.66
2022-08-17T05:14:54.582Z,99092.75
2022-08-17T05:16:27.862Z,99102.75
2022-08-17T05:18:00.537Z,99093.84
2022-08-17T05:19:32.703Z,99098.06
2022-08-17T05:21:06.803Z,99094.56
2022-08-17T05:22:54.581Z,99090.31
2022-08-17T05:24:42.716Z,99086.06
2022-08-17T05:26:26.298Z,99089.09
2022-08-17T05:27:59.872Z,99090.91
2022-08-17T05:29:35.740Z,99090.69
2022-08-17T05:31:08.682Z,99085.34
2022-08-17T05:32:52.108Z,99093.09
2022-08-17T05:34:24.672Z,99095.97
2022-08-17T05:35:58.664Z,99096.56
2022-08-17T05:37:31.029Z,99093.31
2022-08-17T05:39:03.400Z,99095.50
2022-08-17T05:40:36.854Z,99092.66
2022-08-17T05:42:09.253Z,99083.06
2022-08-17T05:43:42.370Z,99098.59
2022-08-17T05:45:16.595Z,99090.66
2022-08-17T05:47:06.443Z,99092.06
2022-08-17T05:48:56.009Z,99097.84
2022-08-17T05:50:47.332Z,99104.84
2022-08-17T05:52:38.279Z,99097.91
2022-08-17T05:54:22.546Z,99095.88
2022-08-17T05:56:29.371Z,99094.88
2022-08-17T05:58:11.233Z,99096.34
2022-08-17T06:00:07.527Z,99091.63
2022-08-17T06:01:47.691Z,99102.50
2022-08-17T06:03:26.152Z,99098.25
2022-08-17T06:05:33.374Z,99099.53
2022-08-17T06:07:17.396Z,99094.75
2022-08-17T06:09:05.842Z,99105.59
2022-08-17T06:10:56.796Z,99106.16
2022-08-17T06:12:31.989Z,99104.84
2022-08-17T06:14:27.292Z,99099.56
2022-08-17T06:16:33.466Z,99096.09
2022-08-17T06:18:08.081Z,99093.25
2022-08-17T06:19:54.588Z,99103.41
2022-08-17T06:21:33.094Z,99094.50
2022-08-17T06:23:10.543Z,99101.47
2022-08-17T06:25:12.502Z,99106.22
2022-08-17T06:26:45.810Z,99096.06
2022-08-17T06:28:31.520Z,99090.25
2022-08-17T06:30:13.010Z,99091.75
2022-08-17T06:31:45.292Z,99088.06
2022-08-17T06:33:25.944Z,99093.03
2022-08-17T06:35:00.903Z,99101.25
2022-08-17T06:37:03.676Z,99099.16
2022-08-17T06:38:47.140Z,99095.72
2022-08-17T06:40:45.615Z,99090.81
2022-08-17T06:42:54.737Z,99096.38
2022-08-17T06:44:42.320Z,99095.72
2022-08-17T06:46:36.245Z,99092.94
2022-08-17T06:48:44.650Z,99104.38
2022-08-17T06:50:29.935Z,99102.22
2022-08-17T06:52:46.026Z,99100.41
2022-08-17T06:54:45.796Z,99100.78
2022-08-17T06:56:54.124Z,99101.44
2022-08-17T06:58:28.936Z,99112.13
2022-08-17T07:00:16.960Z,99114.84
2022-08-17T07:01:50.706Z,99102.63
2022-08-17T07:03:44.268Z,99116.31
2022-08-17T07:05:20.325Z,99115.28
2022-08-17T07:06:58.869Z,99116.25
2022-08-17T07:08:49.912Z,99116.19
2022-08-17T07:10:25.375Z,99115.22
2022-08-17T07:12:20.112Z,99116.06
2022-08-17T07:14:04.397Z,99109.25
2022-08-17T07:15:42.626Z,99113.19
2022-08-17T07:17:18.394Z,99111.44
2022-08-17T07:18:54.766Z,99107.38
2022-08-17T07:20:27.922Z,99116.47
2022-08-17T07:22:19.125Z,99107.34
2022-08-17T07:24:29.530Z,99101.22
2022-08-17T07:26:07.123Z,99114.03
2022-08-17T07:27:45.351Z,99113.03
2022-08-17T07:29:19.759Z,99123.53
2022-08-17T07:30:54.463Z,99116.72
2022-08-17T07:32:36.951Z,99118.19
2022-08-17T07:34:14.636Z,99120.63
2022-08-17T07:35:49.922Z,99110.44
2022-08-17T07:37:22.296Z,99120.25
2022-08-17T07:38:58.166Z,99118.91
2022-08-17T07:40:35.317Z,99113.06
2022-08-17T07:42:10.449Z,99113.75
2022-08-17T07:43:43.007Z,99116.59
2022-08-17T07:45:35.383Z,99116.88
2022-08-17T07:47:35.210Z,99111.94
2022-08-17T07:49:10.485Z,99110.66
2022-08-17T07:50:42.706Z,99111.25
2022-08-17T07:52:50.948Z,99113.59
2022-08-17T07:54:30.972Z,99104.78
2022-08-17T07:56:03.379Z,99121.06
2022-08-17T07:57:36.458Z,99115.94
2022-08-17T07:59:15.676Z,99116.19
2022-08-17T08:01:05.810Z,99122.56
2022-08-17T08:02:42.467Z,99123.84
2022-08-17T08:04:20.064Z,99127.53
2022-08-17T08:06:03.105Z,99117.97
2022-08-17T08:07:42.650Z,99125.59
2022-08-17T08:09:30.224Z,99126.84
2022-08-17T08:11:15.550Z,99125.69
2022-08-17T08:12:52.779Z,99124.09
2022-08-17T08:14:29.946Z,99120.06
2022-08-17T08:16:24.431Z,99122.75
2022-08-17T08:18:03.064Z,99122.41
2022-08-17T08:19:35.603Z,99123.03
2022-08-17T08:21:13.089Z,99108.16
2022-08-17T08:23:02.928Z,99122.94
2022-08-17T08:25:01.626Z,99128.59
2022-08-17T08:26:42.344Z,99125.91
2022-08-17T08:28:34.121Z,99127.25
2022-08-17T08:30:12.144Z,99115.88
2022-08-17T08:31:53.515Z,99124.63
2022-08-17T08:33:32.124Z,99123.63
2022-08-17T08:35:23.422Z,99132.47
2022-08-17T08:37:27.489Z,99130.00
2022-08-17T08:39:44.368Z,99137.44
2022-08-17T08:41:38.650Z,99127.34
2022-08-17T08:43:36.179Z,99127.00
2022-08-17T08:45:16.200Z,99126.81
2022-08-17T08:46:54.249Z,99131.81
2022-08-17T08:48:57.728Z,99117.66
2022-08-17T08:50:42.855Z,99130.75
2022-08-17T08:52:38.384Z,99123.13
2022-08-17T08:54:34.965Z,99120.03
2022-08-17T08:56:16.507Z,99115.47
2022-08-17T08:58:08.368Z,99125.09
2022-08-17T09:00:35.954Z,99119.69
2022-08-17T09:02:45.519Z,99118.19
2022-08-17T09:04:25.722Z,99119.03
2022-08-17T09:06:28.713Z,99128.00
2022-08-17T09:08:16.431Z,99124.47
2022-08-17T09:09:59.402Z,99119.06
2022-08-17T09:12:05.806Z,99123.78
2022-08-17T09:13:57.142Z,99133.16
2022-08-17T09:15:38.119Z,99129.28
2022-08-17T09:17:28.996Z,99137.91
2022-08-17T09:19:21.087Z,99131.59
2022-08-17T09:21:33.921Z,99138.03
2022-08-17T09:23:17.031Z,99133.88
2022-08-17T09:24:57.291Z,99135.56
2022-08-17T09:26:48.479Z,99135.75
2022-08-17T09:28:28.821Z,99127.59
2022-08-17T09:30:07.979Z,99127.00
2022-08-17T09:32:03.701Z,99133.31
2022-08-17T09:33:43.090Z,99125.06
2022-08-17T09:35:32.881Z,99124.44
2022-08-17T09:37:20.742Z,99129.56
2022-08-17T09:39:06.367Z,99124.81
2022-08-17T09:40:47.570Z,99125.53
2022-08-17T09:42:31.458Z,99127.50
2022-08-17T09:44:28.327Z,99122.59
2022-08-17T09:46:25.090Z,99129.06
2022-08-17T09:48:06.472Z,99129.03
2022-08-17T09:50:11.550Z,99127.03
2022-08-17T09:51:51.887Z,99124.97
2022-08-17T09:54:38.959Z,99129.16
2022-08-17T09:55:56.023Z,99119.28
2022-08-17T09:57:55.661Z,99122.81
2022-08-17T10:00:32.401Z,99119.94
2022-08-17T10:02:30.520Z,99120.03
2022-08-17T10:04:22.844Z,99118.59
2022-08-17T10:06:08.429Z,99119.19
2022-08-17T10:07:52.356Z,99116.31
2022-08-17T10:09:46.486Z,99116.94
2022-08-17T10:11:51.579Z,99111.91
2022-08-17T10:13:53.167Z,99111.75
2022-08-17T10:15:28.929Z,99110.34
2022-08-17T10:17:30.671Z,99113.84
2022-08-17T10:19:11.602Z,99112.47
2022-08-17T10:21:29.139Z,99113.22
2022-08-17T10:23:26.899Z,99114.66
2022-08-17T10:25:22.679Z,99111.06
2022-08-17T10:27:00.358Z,99109.56
2022-08-17T10:28:41.864Z,99109.41
2022-08-17T10:30:20.561Z,99110.19
2022-08-17T10:32:00.788Z,99107.44
2022-08-17T10:33:56.969Z,99105.31
2022-08-17T10:35:44.501Z,99107.97
2022-08-17T10:37:19.760Z,99108.72
2022-08-17T10:39:52.369Z,99099.47
2022-08-17T10:41:31.527Z,99100.72
2022-08-17T10:43:23.076Z,99095.03
2022-08-17T10:45:15.542Z,99097.69
2022-08-17T10:47:14.493Z,99101.81
2022-08-17T10:49:21.543Z,99091.84
2022-08-17T10:50:57.713Z,99083.16
2022-08-17T10:52:30.584Z,99087.88
2022-08-17T10:54:02.877Z,99078.03
2022-08-17T10:55:35.034Z,99086.28
2022-08-17T10:57:25.830Z,99082.00
2022-08-17T10:59:01.580Z,99081.88
2022-08-17T11:00:39.948Z,99085.25
2022-08-17T11:02:26.108Z,99083.13
2022-08-17T11:04:23.131Z,99080.06
2022-08-17T11:06:01.727Z,99082.63
2022-08-17T11:07:43.908Z,99086.66
2022-08-17T11:09:44.209Z,99085.13
2022-08-17T11:11:25.653Z,99083.69
2022-08-17T11:13:14.918Z,99079.34
2022-08-17T11:14:53.369Z,99088.28
2022-08-17T11:16:43.122Z,99079.16
2022-08-17T11:18:27.520Z,99076.84
2022-08-17T11:20:13.961Z,99076.69
2022-08-17T11:22:33.596Z,99071.53
2022-08-17T11:24:19.723Z,99075.50
2022-08-17T11:25:54.467Z,99075.97
2022-08-17T11:27:33.040Z,99086.16
2022-08-17T11:29:24.825Z,99076.19
2022-08-17T11:31:06.425Z,99076.75
2022-08-17T11:32:47.610Z,99072.38
2022-08-17T11:34:26.592Z,99069.22
2022-08-17T11:36:19.771Z,99064.69
2022-08-17T11:38:25.408Z,99077.19
2022-08-17T11:40:14.475Z,99076.88
2022-08-17T11:41:57.649Z,99065.38
2022-08-17T11:44:01.986Z,99064.44
2022-08-17T11:46:13.041Z,99061.00
2022-08-17T11:48:27.334Z,99057.75
2022-08-17T11:50:40.260Z,99059.84
2022-08-17T11:52:35.662Z,99056.31
2022-08-17T11:54:33.345Z,99045.75
2022-08-17T11:56:05.989Z,99048.88
2022-08-17T11:57:41.176Z,99050.38
2022-08-17T11:59:37.120Z,99058.13
2022-08-17T12:01:26.890Z,99047.66
2022-08-17T12:03:31.893Z,99040.03
2022-08-17T12:05:04.514Z,99045.63
2022-08-17T12:07:11.347Z,99048.44
2022-08-17T12:09:00.488Z,99041.28
2022-08-17T12:10:36.919Z,99037.72
2022-08-17T12:12:18.142Z,99034.16
2022-08-17T12:13:56.206Z,99034.72
2022-08-17T12:15:36.161Z,99034.03
2022-08-17T12:17:14.159Z,99032.78
2022-08-17T12:19:02.506Z,99034.34
2022-08-17T12:20:43.433Z,99044.97
2022-08-17T12:22:26.940Z,99037.53
2022-08-17T12:24:29.259Z,99032.16
2022-08-17T12:26:16.643Z,99034.28
2022-08-17T12:28:04.804Z,99037.00
2022-08-17T12:29:43.955Z,99039.09
2022-08-17T12:31:23.225Z,99028.41
2022-08-17T12:32:55.854Z,99026.16
2022-08-17T12:34:40.851Z,99023.94
2022-08-17T12:36:17.306Z,99023.22
2022-08-17T12:37:50.631Z,99024.72
2022-08-17T12:39:26.561Z,99021.75
2022-08-17T12:40:59.663Z,99019.56
2022-08-17T12:42:37.856Z,99016.56
2022-08-17T12:44:17.187Z,99016.44
2022-08-17T12:46:01.165Z,99023.31
2022-08-17T12:47:47.372Z,99022.56
2022-08-17T12:49:26.472Z,99017.56
2022-08-17T12:51:02.599Z,99022.28
2022-08-17T12:52:39.763Z,99013.91
2022-08-17T12:54:29.483Z,99020.94
2022-08-17T12:56:07.509Z,99019.53
2022-08-17T12:57:43.810Z,99023.84
2022-08-17T12:59:29.919Z,99011.41
2022-08-17T13:01:09.227Z,99014.22
2022-08-17T13:03:05.917Z,99013.63
2022-08-17T13:04:40.140Z,99017.25
2022-08-17T13:06:25.348Z,99006.25
2022-08-17T13:07:59.864Z,99008.94
2022-08-17T13:09:35.389Z,99012.28
2022-08-17T13:11:16.498Z,99012.97
2022-08-17T13:12:52.481Z,99003.94
2022-08-17T13:14:28.842Z,99003.22
2022-08-17T13:16:17.050Z,99003.28
2022-08-17T13:18:09.002Z,99005.84
2022-08-17T13:19:49.575Z,99002.84
2022-08-17T13:21:30.686Z,98998.47
2022-08-17T13:23:12.054Z,98999.34
2022-08-17T13:24:54.220Z,99012.03
2022-08-17T13:26:34.510Z,98999.44
2022-08-17T13:28:18.448Z,99005.72
2022-08-17T13:30:11.766Z,98998.59
2022-08-17T13:31:52.840Z,98997.06
2022-08-17T13:33:43.376Z,98989.25
2022-08-17T13:35:40.582Z,98990.69
2022-08-17T13:37:32.472Z,98989.25
2022-08-17T13:39:28.462Z,98992.84
2022-08-17T13:41:00.934Z,98994.13
2022-08-17T13:42:52.357Z,98989.72
2022-08-17T13:44:31.841Z,98986.88
2022-08-17T13:46:28.860Z,98993.09
2022-08-17T13:48:23.352Z,98993.38
2022-08-17T13:49:56.625Z,98989.81
2022-08-17T13:51:33.430Z,98989.84
2022-08-17T13:53:24.130Z,98992.88
2022-08-17T13:54:59.369Z,98992.75
2022-08-17T13:56:46.342Z,98990.13
2022-08-17T13:58:25.621Z,98985.88
2022-08-17T14:00:30.033Z,98988.03
2022-08-17T14:02:02.796Z,98986.56
2022-08-17T14:03:35.080Z,98994.19
2022-08-17T14:05:07.801Z,98994.94
2022-08-17T14:06:58.691Z,98994.88
2022-08-17T14:08:31.056Z,98985.88
2022-08-17T14:10:11.942Z,98988.06
2022-08-17T14:11:45.779Z,98988.75
2022-08-17T14:13:18.648Z,98990.13
2022-08-17T14:14:52.229Z,98986.00
2022-08-17T14:16:24.472Z,98990.41
2022-08-17T14:17:56.987Z,98986.75
2022-08-17T14:19:29.353Z,99001.56
2022-08-17T14:21:01.675Z,98987.38
2022-08-17T14:22:34.923Z,98983.13
2022-08-17T14:24:10.635Z,98985.13
2022-08-17T14:25:42.833Z,98982.38
2022-08-17T14:27:17.635Z,98979.63
2022-08-17T14:28:54.617Z,98977.63
2022-08-17T14:30:29.964Z,98984.66
2022-08-17T14:32:11.722Z,98974.69
2022-08-17T14:33:43.988Z,98984.44
2022-08-17T14:35:16.181Z,98983.00
2022-08-17T14:36:48.911Z,98977.28
2022-08-17T14:38:21.212Z,98979.41
2022-08-17T14:39:55.894Z,98987.22
2022-08-17T14:41:29.086Z,98985.19
2022-08-17T14:43:01.699Z,98974.78
2022-08-17T14:44:33.944Z,98977.56
2022-08-17T14:46:06.461Z,98982.56
2022-08-17T14:47:40.550Z,98980.66
2022-08-17T14:49:15.673Z,98983.50
2022-08-17T14:50:47.956Z,98983.50
2022-08-17T14:52:23.269Z,98987.78
2022-08-17T14:53:57.304Z,98980.03
2022-08-17T14:55:31.061Z,98978.03
2022-08-17T14:57:33.742Z,98982.34
2022-08-17T14:58:56.062Z,98977.66
2022-08-17T15:00:28.677Z,98983.41
2022-08-17T15:02:02.780Z,98985.00
2022-08-17T15:03:35.046Z,98979.47
2022-08-17T15:05:07.783Z,98980.94
2022-08-17T15:06:39.961Z,98984.47
2022-08-17T15:08:13.030Z,98982.34
2022-08-17T15:09:45.658Z,98981.00
2022-08-17T15:11:18.288Z,98986.00
2022-08-17T15:12:50.544Z,98981.88
2022-08-17T15:14:23.202Z,98986.16
2022-08-17T15:15:55.512Z,98980.66
2022-08-17T15:17:55.073Z,98989.78
2022-08-17T15:19:20.058Z,98970.28
2022-08-17T15:20:52.975Z,98987.19
2022-08-17T15:22:27.342Z,98987.28
2022-08-17T15:24:03.110Z,98985.94
2022-08-17T15:25:35.396Z,98985.28
2022-08-17T15:27:07.954Z,98982.53
2022-08-17T15:28:40.280Z,98974.91
2022-08-17T15:30:12.881Z,98974.97
2022-08-17T15:31:45.289Z,98981.47
2022-08-17T15:33:21.905Z,98977.19
2022-08-17T15:34:57.028Z,98978.66
2022-08-17T15:36:29.364Z,98979.38
2022-08-17T15:38:11.750Z,98982.31
2022-08-17T15:39:44.813Z,98980.22
2022-08-17T15:41:18.413Z,98981.75
2022-08-17T15:42:51.250Z,98970.75
2022-08-17T15:44:23.422Z,98973.44
2022-08-17T15:46:10.869Z,98976.28
2022-08-17T15:47:43.350Z,98967.94
2022-08-17T15:49:15.784Z,98977.84
2022-08-17T15:50:47.834Z,98976.50
2022-08-17T15:52:24.011Z,98960.50
2022-08-17T15:53:59.243Z,98968.25
2022-08-17T15:55:38.379Z,98965.00
2022-08-17T15:57:10.566Z,98967.13
2022-08-17T15:58:46.768Z,98964.34
2022-08-17T16:00:20.162Z,98974.97
2022-08-17T16:03:15.177Z,98966.00
2022-08-17T16:04:04.860Z,98968.94
2022-08-17T16:05:40.761Z,98964.22
2022-08-17T16:07:14.601Z,98969.94
2022-08-17T16:08:47.559Z,98966.63
2022-08-17T16:10:19.908Z,98977.94
2022-08-17T16:11:55.380Z,98964.16
2022-08-17T16:13:28.442Z,98968.59
2022-08-17T16:15:01.876Z,98967.41
2022-08-17T16:16:34.110Z,98967.50
2022-08-17T16:18:06.310Z,98966.19
2022-08-17T16:19:39.610Z,98967.78
2022-08-17T16:21:26.800Z,98966.50
2022-08-17T16:22:59.032Z,98962.59
2022-08-17T16:24:32.062Z,98971.13
2022-08-17T16:26:04.367Z,98971.91
2022-08-17T16:27:36.977Z,98972.16
2022-08-17T16:29:09.660Z,98968.94
2022-08-17T16:30:41.932Z,98976.88
2022-08-17T16:32:15.317Z,98973.63
2022-08-17T16:34:15.548Z,98975.25
2022-08-17T16:35:42.172Z,98976.94
2022-08-17T16:37:14.554Z,98982.75
2022-08-17T16:38:46.799Z,98980.25
2022-08-17T16:40:19.474Z,98981.19
2022-08-17T16:41:51.583Z,98983.53
2022-08-17T16:43:23.910Z,98980.88
2022-08-17T16:45:00.348Z,98981.06
2022-08-17T16:46:33.583Z,98988.25
2022-08-17T16:48:07.498Z,98986.25
2022-08-17T16:49:39.911Z,98987.13
2022-08-17T16:51:12.294Z,98987.28
2022-08-17T16:52:48.511Z,98984.59
2022-08-17T16:54:21.694Z,98988.16
2022-08-17T16:55:54.247Z,98979.22
2022-08-17T16:57:27.309Z,98991.88
2022-08-17T16:59:00.051Z,98991.97
2022-08-17T17:00:47.749Z,98985.16
2022-08-17T17:02:36.510Z,98983.84
2022-08-17T17:04:14.748Z,98980.47
2022-08-17T17:05:56.226Z,98980.53
2022-08-17T17:07:40.245Z,98977.16
2022-08-17T17:09:20.003Z,98980.03
2022-08-17T17:10:57.214Z,98973.84
2022-08-17T17:12:59.534Z,98978.78
2022-08-17T17:14:30.764Z,98976.03
2022-08-17T17:16:17.285Z,98979.56
2022-08-17T17:17:52.393Z,98983.84
2022-08-17T17:19:38.609Z,98984.59
2022-08-17T17:21:16.801Z,98981.19
2022-08-17T17:22:52.236Z,98979.09
2022-08-17T17:25:02.337Z,98986.16
2022-08-17T17:26:52.107Z,98976.50
2022-08-17T17:28:43.483Z,98984.16
2022-08-17T17:30:27.515Z,98977.25
2022-08-17T17:32:13.967Z,98980.13
2022-08-17T17:34:00.459Z,98987.09
2022-08-17T17:35:48.045Z,98982.97
2022-08-17T17:37:26.246Z,98982.28
2022-08-17T17:39:15.508Z,98982.31
2022-08-17T17:40:51.431Z,98993.50
2022-08-17T17:42:31.373Z,98994.91
2022-08-17T17:44:12.319Z,98992.16
2022-08-17T17:46:26.472Z,98999.81
2022-08-17T17:47:53.555Z,98995.00
2022-08-17T17:49:30.686Z,98994.28
2022-08-17T17:51:45.573Z,98995.69
2022-08-17T17:53:34.795Z,98999.91
2022-08-17T17:55:15.536Z,98996.41
2022-08-17T17:57:01.865Z,98992.25
2022-08-17T17:59:03.831Z,98997.13
2022-08-17T18:00:58.151Z,98993.66
2022-08-17T18:02:54.983Z,99001.34
2022-08-17T18:04:36.670Z,98994.38
2022-08-17T18:06:18.656Z,99000.66
2022-08-17T18:08:10.719Z,98997.84
2022-08-17T18:10:01.175Z,98999.94
2022-08-17T18:12:00.207Z,98995.06
2022-08-17T18:13:43.191Z,98999.94
2022-08-17T18:15:51.521Z,99002.72
2022-08-17T18:17:23.839Z,98998.53
2022-08-17T18:18:57.767Z,99004.06
2022-08-17T18:20:36.010Z,99005.47
2022-08-17T18:22:20.841Z,99006.84
2022-08-17T18:23:57.369Z,99003.34
2022-08-17T18:25:45.205Z,99006.81
2022-08-17T18:27:35.222Z,99015.16
2022-08-17T18:29:34.647Z,99016.53
2022-08-17T18:31:12.117Z,99020.69
2022-08-17T18:32:46.638Z,99020.00
2022-08-17T18:34:43.767Z,99013.00
2022-08-17T18:36:29.179Z,99013.69
2022-08-17T18:38:22.317Z,99017.16
2022-08-17T18:39:54.662Z,99018.50
2022-08-17T18:41:30.437Z,99028.94
2022-08-17T18:43:05.799Z,99028.91
2022-08-17T18:44:38.176Z,99025.41
2022-08-17T18:46:40.154Z,99027.44
2022-08-17T18:48:33.159Z,99023.22
2022-08-17T18:50:21.003Z,99028.78
2022-08-17T18:52:16.485Z,99026.66
2022-08-17T18:54:07.980Z,99025.28
2022-08-17T18:55:40.205Z,99019.69
2022-08-17T18:57:16.364Z,99028.06
2022-08-17T18:59:01.451Z,99033.59
2022-08-17T19:00:40.904Z,99027.28
2022-08-17T19:02:20.584Z,99031.44
2022-08-17T19:03:54.887Z,99031.41
2022-08-17T19:05:38.804Z,99035.56
2022-08-17T19:07:16.818Z,99037.59
2022-08-17T19:08:49.086Z,99029.22
2022-08-17T19:10:28.715Z,99035.44
2022-08-17T19:12:06.151Z,99032.63
2022-08-17T19:13:45.317Z,99031.22
2022-08-17T19:15:24.851Z,99028.38
2022-08-17T19:17:14.125Z,99018.66
2022-08-17T19:18:52.903Z,99038.81
2022-08-17T19:20:54.525Z,99042.94
2022-08-17T19:22:44.335Z,99022.03
2022-08-17T19:24:21.163Z,99035.28
2022-08-17T19:25:58.456Z,99020.69
2022-08-17T19:27:46.246Z,99028.31
2022-08-17T19:29:31.912Z,99031.75
2022-08-17T19:31:18.872Z,99024.78
2022-08-17T19:32:52.558Z,99028.28
2022-08-17T19:34:34.133Z,99027.56
2022-08-17T19:36:11.365Z,99031.00
2022-08-17T19:38:00.601Z,99028.91
2022-08-17T19:40:02.848Z,99028.19
2022-08-17T19:41:45.660Z,99021.88
2022-08-17T19:43:23.486Z,99034.38
2022-08-17T19:45:13.006Z,99021.88
2022-08-17T19:47:08.198Z,99026.00
2022-08-17T19:48:56.734Z,99024.56
2022-08-17T19:50:54.185Z,99019.69
2022-08-17T19:53:12.000Z,99022.41